Manchester, Vermont
Current Conditions -  °F | °C
As of 2:54 PM on Monday 24 Nov 2014 (Local Time) from KDDH Reporting Station
Overcast Overcast  
Wind Chill: 66°   Ceiling: 3300
Heat Index: 66°   Visibility: 10mi
Dew Point: 55°   Wind: 8mph
Humidity: 68%   Direction: 120°ESE
Pressure: 29.48"   Gusts: NA
Location:  43.16°N, 73.07°W
Report Text: KDDH 241954Z AUTO 12007KT 10SM OVC033 19/13 A2948 RMK AO2 SLP980 T01890128
Loading
Personal Weather Stations






























Interactive Weather Map New forecast layout! Learn more

10-Day Weather Forecast

Advertisements
Track Severe Weather on mobile